sensor_id;sensor_type;location;lat;lon;timestamp;P1;durP1;ratioP1;P2;durP2;ratioP2
73437;SDS011;66471;56.532;21.020;2024-01-16T06:10:24;4.82;;;1.48;;
73437;SDS011;66471;56.532;21.020;2024-01-16T06:12:51;5.72;;;1.13;;
73437;SDS011;66471;56.532;21.020;2024-01-16T06:15:18;4.00;;;0.88;;
73437;SDS011;66471;56.532;21.020;2024-01-16T06:17:45;4.07;;;1.00;;
73437;SDS011;66471;56.532;21.020;2024-01-16T06:20:12;4.23;;;1.03;;
73437;SDS011;66471;56.532;21.020;2024-01-16T06:22:40;2.90;;;0.82;;
73437;SDS011;66471;56.532;21.020;2024-01-16T06:25:07;5.70;;;1.17;;
73437;SDS011;66471;56.532;21.020;2024-01-16T06:27:34;3.78;;;0.85;;
73437;SDS011;66471;56.532;21.020;2024-01-16T06:30:01;3.20;;;1.00;;
73437;SDS011;66471;56.532;21.020;2024-01-16T06:32:30;3.63;;;1.07;;
73437;SDS011;66471;56.532;21.020;2024-01-16T06:34:57;4.13;;;1.27;;
73437;SDS011;66471;56.532;21.020;2024-01-16T06:37:24;3.40;;;0.90;;
73437;SDS011;66471;56.532;21.020;2024-01-16T06:39:51;3.17;;;1.10;;
73437;SDS011;66471;56.532;21.020;2024-01-16T06:42:18;4.80;;;1.45;;
73437;SDS011;66471;56.532;21.020;2024-01-16T06:44:46;5.47;;;1.63;;
73437;SDS011;66471;56.532;21.020;2024-01-16T06:47:13;3.83;;;0.82;;
73437;SDS011;66471;56.532;21.020;2024-01-16T06:49:41;5.65;;;1.45;;
73437;SDS011;66471;56.532;21.020;2024-01-16T06:52:08;3.80;;;1.27;;
73437;SDS011;66471;56.532;21.020;2024-01-16T06:54:35;3.90;;;1.45;;
73437;SDS011;66471;56.532;21.020;2024-01-16T06:57:03;7.07;;;1.70;;
73437;SDS011;66471;56.532;21.020;2024-01-16T06:59:30;3.40;;;1.02;;
73437;SDS011;66471;56.532;21.020;2024-01-16T07:01:57;6.50;;;2.08;;
73437;SDS011;66471;56.532;21.020;2024-01-16T07:04:24;5.22;;;1.45;;
73437;SDS011;66471;56.532;21.020;2024-01-16T07:06:52;4.05;;;1.17;;
73437;SDS011;66471;56.532;21.020;2024-01-16T07:09:19;3.97;;;1.03;;
73437;SDS011;66471;56.532;21.020;2024-01-16T07:11:47;4.72;;;1.27;;
73437;SDS011;66471;56.532;21.020;2024-01-16T07:14:14;15.68;;;6.30;;
73437;SDS011;66471;56.532;21.020;2024-01-16T07:16:41;22.40;;;8.40;;
73437;SDS011;66471;56.532;21.020;2024-01-16T07:19:09;17.55;;;7.22;;
73437;SDS011;66471;56.532;21.020;2024-01-16T07:21:38;32.67;;;9.40;;
73437;SDS011;66471;56.532;21.020;2024-01-16T07:24:06;8.70;;;2.10;;
73437;SDS011;66471;56.532;21.020;2024-01-16T07:26:33;13.38;;;4.72;;
73437;SDS011;66471;56.532;21.020;2024-01-16T07:29:01;29.42;;;9.43;;
73437;SDS011;66471;56.532;21.020;2024-01-16T07:31:28;14.10;;;5.18;;
73437;SDS011;66471;56.532;21.020;2024-01-16T07:33:56;10.43;;;4.87;;
73437;SDS011;66471;56.532;21.020;2024-01-16T07:36:23;10.35;;;5.43;;
73437;SDS011;66471;56.532;21.020;2024-01-16T07:38:50;10.38;;;5.45;;
73437;SDS011;66471;56.532;21.020;2024-01-16T07:41:17;7.65;;;2.55;;
73437;SDS011;66471;56.532;21.020;2024-01-16T07:43:45;8.88;;;4.60;;
73437;SDS011;66471;56.532;21.020;2024-01-16T07:46:15;15.57;;;6.77;;
73437;SDS011;66471;56.532;21.020;2024-01-16T07:48:43;8.13;;;2.45;;
73437;SDS011;66471;56.532;21.020;2024-01-16T07:51:10;8.32;;;3.50;;
73437;SDS011;66471;56.532;21.020;2024-01-16T07:53:37;6.45;;;1.95;;
73437;SDS011;66471;56.532;21.020;2024-01-16T07:56:04;10.90;;;4.47;;
73437;SDS011;66471;56.532;21.020;2024-01-16T07:58:32;8.20;;;4.67;;
73437;SDS011;66471;56.532;21.020;2024-01-16T08:00:59;5.25;;;2.58;;
73437;SDS011;66471;56.532;21.020;2024-01-16T08:03:26;4.68;;;2.60;;
73437;SDS011;66471;56.532;21.020;2024-01-16T08:05:53;5.15;;;2.45;;
73437;SDS011;66471;56.532;21.020;2024-01-16T08:08:21;8.63;;;3.75;;
73437;SDS011;66471;56.532;21.020;2024-01-16T08:10:48;26.30;;;10.03;;
73437;SDS011;66471;56.532;21.020;2024-01-16T08:13:15;31.70;;;12.13;;
73437;SDS011;66471;56.532;21.020;2024-01-16T08:15:43;34.78;;;11.95;;
73437;SDS011;66471;56.532;21.020;2024-01-16T08:18:10;5.82;;;2.38;;
73437;SDS011;66471;56.532;21.020;2024-01-16T08:20:38;4.90;;;1.83;;
73437;SDS011;66471;56.532;21.020;2024-01-16T08:23:05;4.60;;;1.43;;
73437;SDS011;66471;56.532;21.020;2024-01-16T08:25:33;7.38;;;1.50;;
73437;SDS011;66471;56.532;21.020;2024-01-16T08:28:00;4.43;;;1.65;;
73437;SDS011;66471;56.532;21.020;2024-01-16T08:30:28;5.88;;;1.42;;
73437;SDS011;66471;56.532;21.020;2024-01-16T08:32:56;4.55;;;1.48;;
73437;SDS011;66471;56.532;21.020;2024-01-16T08:35:24;3.90;;;1.00;;
73437;SDS011;66471;56.532;21.020;2024-01-16T08:37:51;12.95;;;3.97;;
73437;SDS011;66471;56.532;21.020;2024-01-16T08:40:19;8.52;;;3.08;;
73437;SDS011;66471;56.532;21.020;2024-01-16T08:42:46;5.45;;;1.90;;
73437;SDS011;66471;56.532;21.020;2024-01-16T08:45:22;4.43;;;1.70;;
73437;SDS011;66471;56.532;21.020;2024-01-16T08:47:50;6.70;;;1.40;;
73437;SDS011;66471;56.532;21.020;2024-01-16T08:50:17;7.22;;;1.77;;
73437;SDS011;66471;56.532;21.020;2024-01-16T08:52:45;3.58;;;1.10;;
73437;SDS011;66471;56.532;21.020;2024-01-16T08:55:12;26.50;;;10.13;;
73437;SDS011;66471;56.532;21.020;2024-01-16T08:57:40;22.95;;;9.75;;
73437;SDS011;66471;56.532;21.020;2024-01-16T09:00:07;8.73;;;2.73;;
73437;SDS011;66471;56.532;21.020;2024-01-16T09:02:35;11.02;;;3.45;;
73437;SDS011;66471;56.532;21.020;2024-01-16T09:05:03;15.02;;;6.20;;
73437;SDS011;66471;56.532;21.020;2024-01-16T09:07:31;13.75;;;4.72;;
73437;SDS011;66471;56.532;21.020;2024-01-16T09:09:59;15.23;;;5.00;;
73437;SDS011;66471;56.532;21.020;2024-01-16T09:12:26;18.53;;;7.10;;
73437;SDS011;66471;56.532;21.020;2024-01-16T09:14:54;26.23;;;11.45;;
73437;SDS011;66471;56.532;21.020;2024-01-16T09:17:21;26.30;;;10.18;;
73437;SDS011;66471;56.532;21.020;2024-01-16T09:19:48;7.32;;;2.38;;
73437;SDS011;66471;56.532;21.020;2024-01-16T09:22:15;3.80;;;1.30;;
73437;SDS011;66471;56.532;21.020;2024-01-16T09:24:43;2.83;;;0.90;;
73437;SDS011;66471;56.532;21.020;2024-01-16T09:27:10;4.15;;;1.00;;
73437;SDS011;66471;56.532;21.020;2024-01-16T09:29:39;4.15;;;1.30;;
73437;SDS011;66471;56.532;21.020;2024-01-16T09:32:07;4.53;;;1.45;;
73437;SDS011;66471;56.532;21.020;2024-01-16T09:34:34;4.57;;;1.45;;
73437;SDS011;66471;56.532;21.020;2024-01-16T09:37:01;4.63;;;0.80;;
73437;SDS011;66471;56.532;21.020;2024-01-16T09:39:30;5.35;;;1.30;;
73437;SDS011;66471;56.532;21.020;2024-01-16T09:41:59;4.47;;;1.30;;
73437;SDS011;66471;56.532;21.020;2024-01-16T09:44:29;3.22;;;0.80;;
73437;SDS011;66471;56.532;21.020;2024-01-16T09:46:57;5.80;;;1.90;;
73437;SDS011;66471;56.532;21.020;2024-01-16T09:49:25;3.17;;;0.90;;
73437;SDS011;66471;56.532;21.020;2024-01-16T09:51:56;5.20;;;1.17;;
73437;SDS011;66471;56.532;21.020;2024-01-16T09:54:26;4.22;;;1.13;;
73437;SDS011;66471;56.532;21.020;2024-01-16T09:56:53;4.68;;;1.42;;
73437;SDS011;66471;56.532;21.020;2024-01-16T09:59:24;3.55;;;1.20;;
73437;SDS011;66471;56.532;21.020;2024-01-16T10:01:54;3.40;;;0.90;;
73437;SDS011;66471;56.532;21.020;2024-01-16T10:04:22;2.75;;;0.95;;
73437;SDS011;66471;56.532;21.020;2024-01-16T10:06:49;3.70;;;1.02;;
73437;SDS011;66471;56.532;21.020;2024-01-16T10:09:20;4.55;;;1.30;;
73437;SDS011;66471;56.532;21.020;2024-01-16T10:11:48;26.42;;;9.52;;
73437;SDS011;66471;56.532;21.020;2024-01-16T10:14:19;10.70;;;3.57;;
73437;SDS011;66471;56.532;21.020;2024-01-16T10:16:59;8.75;;;3.40;;
73437;SDS011;66471;56.532;21.020;2024-01-16T10:19:34;6.55;;;1.27;;
73437;SDS011;66471;56.532;21.020;2024-01-16T10:22:13;5.75;;;1.80;;
73437;SDS011;66471;56.532;21.020;2024-01-16T10:27:33;11.27;;;4.70;;
73437;SDS011;66471;56.532;21.020;2024-01-16T10:30:00;12.50;;;5.40;;
73437;SDS011;66471;56.532;21.020;2024-01-16T10:32:30;12.05;;;4.25;;
73437;SDS011;66471;56.532;21.020;2024-01-16T10:35:03;18.27;;;6.00;;
73437;SDS011;66471;56.532;21.020;2024-01-16T10:40:19;5.73;;;1.70;;
73437;SDS011;66471;56.532;21.020;2024-01-16T10:42:58;8.13;;;2.40;;
73437;SDS011;66471;56.532;21.020;2024-01-16T10:45:27;10.55;;;3.40;;
73437;SDS011;66471;56.532;21.020;2024-01-16T10:48:05;14.93;;;4.82;;
73437;SDS011;66471;56.532;21.020;2024-01-16T10:50:35;20.20;;;6.82;;
73437;SDS011;66471;56.532;21.020;2024-01-16T10:53:05;16.33;;;6.17;;
73437;SDS011;66471;56.532;21.020;2024-01-16T10:55:37;9.48;;;4.18;;
73437;SDS011;66471;56.532;21.020;2024-01-16T10:58:23;9.23;;;3.63;;
73437;SDS011;66471;56.532;21.020;2024-01-16T11:00:52;12.75;;;5.47;;
73437;SDS011;66471;56.532;21.020;2024-01-16T11:03:44;8.13;;;2.92;;
73437;SDS011;66471;56.532;21.020;2024-01-16T11:06:11;6.13;;;1.97;;
73437;SDS011;66471;56.532;21.020;2024-01-16T11:08:40;15.90;;;6.07;;
73437;SDS011;66471;56.532;21.020;2024-01-16T11:11:08;9.80;;;3.25;;
73437;SDS011;66471;56.532;21.020;2024-01-16T11:13:36;13.50;;;5.28;;
73437;SDS011;66471;56.532;21.020;2024-01-16T11:16:05;22.30;;;7.85;;
73437;SDS011;66471;56.532;21.020;2024-01-16T11:18:35;16.23;;;4.93;;
73437;SDS011;66471;56.532;21.020;2024-01-16T18:29:35;64.63;;;23.93;;
73437;SDS011;66471;56.532;21.020;2024-01-16T18:32:03;91.38;;;33.10;;
73437;SDS011;66471;56.532;21.020;2024-01-16T18:48:22;28.60;;;15.18;;
73437;SDS011;66471;56.532;21.020;2024-01-16T18:50:50;34.83;;;16.57;;
73437;SDS011;66471;56.532;21.020;2024-01-16T18:53:18;49.63;;;21.23;;
73437;SDS011;66471;56.532;21.020;2024-01-16T18:55:47;61.72;;;24.33;;
73437;SDS011;66471;56.532;21.020;2024-01-16T18:58:15;101.32;;;36.55;;
73437;SDS011;66471;56.532;21.020;2024-01-16T19:00:43;76.38;;;31.77;;
73437;SDS011;66471;56.532;21.020;2024-01-16T19:03:11;70.10;;;28.67;;
73437;SDS011;66471;56.532;21.020;2024-01-16T19:05:42;59.67;;;25.20;;
73437;SDS011;66471;56.532;21.020;2024-01-16T19:08:09;63.43;;;21.47;;
73437;SDS011;66471;56.532;21.020;2024-01-16T19:10:37;81.75;;;32.10;;
73437;SDS011;66471;56.532;21.020;2024-01-16T19:13:05;98.82;;;32.58;;
73437;SDS011;66471;56.532;21.020;2024-01-16T19:15:32;52.90;;;19.00;;
